createdAt,value
2023-08-17T00:00:23.374Z,100692.25
2023-08-17T00:03:25.810Z,100696.06
2023-08-17T00:06:28.326Z,100696.50
2023-08-17T00:09:30.823Z,100682.16
2023-08-17T00:12:33.369Z,100686.59
2023-08-17T00:15:35.868Z,100680.31
2023-08-17T00:18:38.274Z,100682.78
2023-08-17T00:21:40.631Z,100689.56
2023-08-17T00:24:45.507Z,100669.16
2023-08-17T00:27:47.890Z,100708.16
2023-08-17T00:30:53.392Z,100683.22
2023-08-17T00:33:55.849Z,100704.19
2023-08-17T00:36:58.205Z,100695.66
2023-08-17T00:40:00.703Z,100713.78
2023-08-17T00:43:03.161Z,100695.44
2023-08-17T00:46:05.962Z,100714.72
2023-08-17T00:49:11.157Z,100683.69
2023-08-17T00:52:13.674Z,100710.28
2023-08-17T00:55:18.575Z,100702.78
2023-08-17T00:58:22.426Z,100698.69
2023-08-17T01:01:25.242Z,100700.41
2023-08-17T01:04:27.660Z,100709.63
2023-08-17T01:07:30.159Z,100711.66
2023-08-17T01:10:46.068Z,100691.28
2023-08-17T01:14:03.689Z,100688.84
2023-08-17T01:17:18.909Z,100711.69
2023-08-17T01:20:24.273Z,100701.47
2023-08-17T01:23:26.734Z,100697.19
2023-08-17T01:26:29.135Z,100710.69
2023-08-17T01:29:31.846Z,100709.59
2023-08-17T01:32:44.846Z,100707.47
2023-08-17T01:36:13.769Z,100684.09
2023-08-17T01:39:18.079Z,100703.34
2023-08-17T01:42:21.813Z,100691.41
2023-08-17T01:45:24.365Z,100691.66
2023-08-17T01:48:26.726Z,100666.81
2023-08-17T01:51:29.152Z,100686.00
2023-08-17T01:54:31.645Z,100672.13
2023-08-17T01:57:34.031Z,100664.69
2023-08-17T02:00:36.421Z,100678.94
2023-08-17T02:03:38.870Z,100654.72
2023-08-17T02:06:41.337Z,100646.09
2023-08-17T02:09:44.256Z,100655.75
2023-08-17T02:12:48.121Z,100660.69
2023-08-17T02:15:50.537Z,100668.94
2023-08-17T02:18:52.995Z,100681.16
2023-08-17T02:21:55.401Z,100660.53
2023-08-17T02:24:57.878Z,100679.03
2023-08-17T02:28:01.106Z,100665.59
2023-08-17T02:31:03.561Z,100663.31
2023-08-17T02:34:06.597Z,100670.59
2023-08-17T02:37:09.104Z,100658.25
2023-08-17T02:40:11.925Z,100653.38
2023-08-17T02:43:14.328Z,100654.91
2023-08-17T02:46:16.716Z,100642.50
2023-08-17T02:49:19.852Z,100637.75
2023-08-17T02:52:22.220Z,100643.53
2023-08-17T02:55:24.753Z,100640.00
2023-08-17T02:58:27.180Z,100660.25
2023-08-17T03:01:31.075Z,100660.56
2023-08-17T03:04:34.087Z,100644.88
2023-08-17T03:07:36.501Z,100660.69
2023-08-17T03:10:39.416Z,100650.84
2023-08-17T03:13:41.795Z,100660.72
2023-08-17T03:16:44.208Z,100662.88
2023-08-17T03:19:46.656Z,100664.56
2023-08-17T03:22:49.086Z,100665.50
2023-08-17T03:25:55.441Z,100675.34
2023-08-17T03:28:58.422Z,100654.72
2023-08-17T03:32:00.851Z,100656.97
2023-08-17T03:35:03.470Z,100649.44
2023-08-17T03:38:05.857Z,100668.63
2023-08-17T03:41:08.524Z,100659.78
2023-08-17T03:44:11.175Z,100666.47
2023-08-17T03:47:13.526Z,100662.25
2023-08-17T03:50:15.941Z,100665.97
2023-08-17T03:53:18.329Z,100670.00
2023-08-17T03:56:20.740Z,100679.22
2023-08-17T03:59:23.208Z,100673.97
2023-08-17T04:02:26.424Z,100650.09
2023-08-17T04:05:29.051Z,100669.53
2023-08-17T04:08:31.492Z,100668.47
2023-08-17T04:11:36.578Z,100655.50
2023-08-17T04:14:38.966Z,100671.94
2023-08-17T04:17:41.426Z,100667.47
2023-08-17T04:20:43.860Z,100650.25
2023-08-17T04:23:46.506Z,100668.78
2023-08-17T04:26:48.913Z,100658.75
2023-08-17T04:29:51.467Z,100662.44
2023-08-17T04:32:54.895Z,100665.44
2023-08-17T04:35:57.309Z,100634.63
2023-08-17T04:38:59.924Z,100626.09
2023-08-17T04:42:04.246Z,100642.94
2023-08-17T04:45:09.759Z,100638.53
2023-08-17T04:48:15.909Z,100652.22
2023-08-17T04:51:19.309Z,100657.38
2023-08-17T04:54:21.725Z,100665.66
2023-08-17T04:57:24.483Z,100651.25
2023-08-17T05:00:31.661Z,100676.88
2023-08-17T05:03:34.863Z,100662.50
2023-08-17T05:06:39.699Z,100673.94
2023-08-17T05:09:42.148Z,100676.97
2023-08-17T05:12:44.787Z,100662.78
2023-08-17T05:15:47.934Z,100681.91
2023-08-17T05:18:51.101Z,100668.63
2023-08-17T05:21:54.851Z,100664.63
2023-08-17T05:24:57.908Z,100671.53
2023-08-17T05:28:00.509Z,100680.91
2023-08-17T05:31:07.221Z,100660.19
2023-08-17T05:34:12.444Z,100686.25
2023-08-17T05:37:16.706Z,100674.84
2023-08-17T05:40:19.385Z,100675.00
2023-08-17T05:43:21.773Z,100663.25
2023-08-17T05:46:24.175Z,100678.03
2023-08-17T05:49:26.585Z,100680.13
2023-08-17T05:52:29.108Z,100683.50
2023-08-17T05:55:31.511Z,100669.00
2023-08-17T05:58:33.946Z,100681.63
2023-08-17T06:01:37.131Z,100672.44
2023-08-17T06:04:39.535Z,100659.56
2023-08-17T06:07:42.082Z,100655.16
2023-08-17T06:10:44.453Z,100676.78
2023-08-17T06:13:46.841Z,100660.56
2023-08-17T06:16:49.377Z,100657.03
2023-08-17T06:19:51.890Z,100672.41
2023-08-17T06:22:54.252Z,100677.25
2023-08-17T06:25:59.928Z,100669.81
2023-08-17T06:29:04.368Z,100667.91
2023-08-17T06:32:07.546Z,100676.06
2023-08-17T06:35:10.182Z,100666.59
2023-08-17T06:38:13.183Z,100681.91
2023-08-17T06:41:15.600Z,100681.72
2023-08-17T06:44:18.015Z,100685.72
2023-08-17T06:47:20.370Z,100682.16
2023-08-17T06:50:22.775Z,100672.94
2023-08-17T06:53:25.146Z,100673.94
2023-08-17T06:56:27.520Z,100699.13
2023-08-17T06:59:29.908Z,100711.47
2023-08-17T07:02:46.606Z,100702.59
2023-08-17T07:05:53.607Z,100691.38
2023-08-17T07:08:56.190Z,100711.06
2023-08-17T07:11:58.644Z,100689.31
2023-08-17T07:15:01.075Z,100698.38
2023-08-17T07:18:03.658Z,100676.19
2023-08-17T07:21:06.058Z,100682.84
2023-08-17T07:24:16.135Z,100665.94
2023-08-17T07:27:18.511Z,100674.41
2023-08-17T07:30:20.948Z,100680.50
2023-08-17T07:33:23.413Z,100690.13
2023-08-17T07:36:25.772Z,100737.97
2023-08-17T07:39:28.268Z,100731.72
2023-08-17T07:42:30.762Z,100723.09
2023-08-17T07:45:33.218Z,100729.66
2023-08-17T07:48:35.611Z,100710.75
2023-08-17T07:51:37.987Z,100718.09
2023-08-17T07:54:40.398Z,100741.31
2023-08-17T07:57:42.794Z,100737.34
2023-08-17T08:00:45.177Z,100756.56
2023-08-17T08:03:47.774Z,100742.13
2023-08-17T08:06:50.135Z,100767.56
2023-08-17T08:09:52.490Z,100788.34
2023-08-17T08:12:55.419Z,100808.41
2023-08-17T08:15:59.882Z,100813.56
2023-08-17T08:19:02.632Z,100796.84
2023-08-17T08:22:05.117Z,100779.94
2023-08-17T08:25:07.867Z,100739.44
2023-08-17T08:28:10.429Z,100693.50
2023-08-17T08:31:13.023Z,100716.09
2023-08-17T08:34:15.565Z,100733.72
2023-08-17T08:37:17.970Z,100725.03
2023-08-17T08:40:21.312Z,100737.00
2023-08-17T08:43:24.373Z,100741.53
2023-08-17T08:46:31.088Z,100738.19
2023-08-17T08:49:42.203Z,100766.19
2023-08-17T08:53:07.362Z,100768.31
2023-08-17T08:56:13.785Z,100759.53
2023-08-17T08:59:17.887Z,100777.25
2023-08-17T09:02:20.450Z,100788.72
2023-08-17T09:05:23.535Z,100770.72
2023-08-17T09:08:31.297Z,100764.56
2023-08-17T09:11:33.682Z,100785.06
2023-08-17T09:14:38.342Z,100708.03
2023-08-17T09:17:40.860Z,100646.16
2023-08-17T09:20:48.816Z,100649.63
2023-08-17T09:27:01.619Z,100660.31
2023-08-17T09:30:10.604Z,100658.97
2023-08-17T09:33:13.020Z,100672.56
2023-08-17T09:36:15.454Z,100671.41
2023-08-17T09:39:19.196Z,100657.28
2023-08-17T09:42:23.748Z,100678.16
2023-08-17T09:45:28.652Z,100696.34
2023-08-17T09:48:33.387Z,100695.81
2023-08-17T09:51:36.283Z,100698.78
2023-08-17T09:54:39.617Z,100695.75
2023-08-17T09:57:43.161Z,100710.78
2023-08-17T10:00:51.485Z,100714.34
2023-08-17T10:03:56.757Z,100716.13
2023-08-17T10:07:05.042Z,100703.16
2023-08-17T10:10:08.517Z,100708.56
2023-08-17T10:13:14.489Z,100689.50
2023-08-17T10:16:34.524Z,100701.31
2023-08-17T10:19:53.191Z,100727.03
2023-08-17T10:23:02.124Z,100706.59
2023-08-17T10:26:05.949Z,100728.09
2023-08-17T10:29:15.472Z,100732.59
2023-08-17T10:32:19.776Z,100734.75
2023-08-17T10:35:22.489Z,100705.34
2023-08-17T10:38:25.204Z,100710.38
2023-08-17T10:41:27.625Z,100695.78
2023-08-17T10:44:42.569Z,100701.13
2023-08-17T10:47:45.125Z,100705.53
2023-08-17T10:51:03.470Z,100714.03
2023-08-17T10:54:06.536Z,100696.34
2023-08-17T10:57:33.573Z,100710.31
2023-08-17T11:00:37.649Z,100694.47
2023-08-17T11:03:42.472Z,100706.53
2023-08-17T11:06:46.249Z,100690.28
2023-08-17T11:09:48.880Z,100705.72
2023-08-17T11:12:57.929Z,100702.63
2023-08-17T11:16:04.611Z,100714.75
2023-08-17T11:19:13.614Z,100688.06
2023-08-17T11:22:19.942Z,100704.84
2023-08-17T11:25:22.747Z,100701.88
2023-08-17T11:28:25.490Z,100700.56
2023-08-17T11:31:27.914Z,100687.25
2023-08-17T11:34:30.817Z,100687.72
2023-08-17T11:37:34.004Z,100689.81
2023-08-17T11:40:37.257Z,100700.91
2023-08-17T11:43:39.633Z,100695.97
2023-08-17T11:46:42.207Z,100690.47
2023-08-17T11:49:48.311Z,100687.66
2023-08-17T11:52:50.740Z,100666.63
2023-08-17T11:55:56.285Z,100676.28
2023-08-17T11:58:59.625Z,100694.47
2023-08-17T12:02:02.088Z,100669.97
2023-08-17T12:05:08.616Z,100672.22
2023-08-17T12:08:11.340Z,100675.56
2023-08-17T12:11:13.855Z,100667.59
2023-08-17T12:14:16.326Z,100668.41
2023-08-17T12:17:20.277Z,100655.13
2023-08-17T12:20:23.042Z,100672.63
2023-08-17T12:23:25.552Z,100659.13
2023-08-17T12:26:28.826Z,100663.31
2023-08-17T12:29:31.258Z,100648.34
2023-08-17T12:32:33.662Z,100652.84
2023-08-17T12:35:36.164Z,100665.53
2023-08-17T12:38:43.162Z,100649.25
2023-08-17T12:41:45.587Z,100653.91
2023-08-17T12:44:47.951Z,100663.25
2023-08-17T12:47:50.335Z,100665.59
2023-08-17T12:50:52.759Z,100655.94
2023-08-17T12:53:55.292Z,100647.25
2023-08-17T12:56:59.507Z,100655.72
2023-08-17T13:00:02.652Z,100641.56
2023-08-17T13:03:05.550Z,100630.84
2023-08-17T13:06:08.846Z,100640.81
2023-08-17T13:09:12.315Z,100647.94
2023-08-17T13:12:14.786Z,100660.25
2023-08-17T13:15:17.322Z,100646.91
2023-08-17T13:18:19.848Z,100646.75
2023-08-17T13:21:22.208Z,100639.88
2023-08-17T13:24:24.703Z,100624.31
2023-08-17T13:27:27.201Z,100640.63
2023-08-17T13:30:29.720Z,100631.94
2023-08-17T13:33:32.275Z,100616.03
2023-08-17T13:36:34.858Z,100624.91
2023-08-17T13:39:37.263Z,100622.06
2023-08-17T13:42:39.607Z,100621.78
2023-08-17T13:45:42.121Z,100612.16
2023-08-17T13:48:44.523Z,100600.03
2023-08-17T13:51:46.896Z,100602.25
2023-08-17T13:54:49.568Z,100607.84
2023-08-17T13:57:53.972Z,100596.19
2023-08-17T14:00:56.434Z,100603.75
2023-08-17T14:03:58.896Z,100582.88
2023-08-17T14:07:01.309Z,100599.06
2023-08-17T14:10:09.024Z,100598.22
2023-08-17T14:13:13.250Z,100603.06
2023-08-17T14:16:15.770Z,100592.69
2023-08-17T14:19:18.158Z,100612.91
2023-08-17T14:22:20.560Z,100612.97
2023-08-17T14:25:24.067Z,100608.50
2023-08-17T14:28:27.703Z,100590.88
2023-08-17T14:31:30.442Z,100583.75
2023-08-17T14:34:32.860Z,100602.75
2023-08-17T14:37:35.566Z,100596.91
2023-08-17T14:40:42.793Z,100590.91
2023-08-17T14:43:45.533Z,100593.78
2023-08-17T14:46:47.916Z,100572.97
2023-08-17T14:49:50.266Z,100588.34
2023-08-17T14:52:52.671Z,100590.19
2023-08-17T14:55:55.384Z,100592.69
2023-08-17T14:58:57.847Z,100576.53
2023-08-17T15:02:00.230Z,100570.88
2023-08-17T15:05:02.777Z,100574.16
2023-08-17T15:08:05.564Z,100564.31
2023-08-17T15:11:07.984Z,100563.00
2023-08-17T15:14:16.146Z,100563.19
2023-08-17T15:17:18.921Z,100559.34
2023-08-17T15:20:21.336Z,100572.72
2023-08-17T15:23:23.691Z,100580.53
2023-08-17T15:26:26.087Z,100558.22
2023-08-17T15:29:28.676Z,100557.88
2023-08-17T15:32:31.367Z,100569.53
2023-08-17T15:35:33.767Z,100550.72
2023-08-17T15:38:36.144Z,100555.56
2023-08-17T15:41:38.608Z,100565.56
2023-08-17T15:44:40.983Z,100539.91
2023-08-17T15:47:43.333Z,100551.41
2023-08-17T15:50:45.683Z,100541.59
2023-08-17T15:53:48.046Z,100550.75
2023-08-17T15:56:50.782Z,100555.44
2023-08-17T15:59:53.541Z,100549.59
2023-08-17T16:02:55.959Z,100534.56
2023-08-17T16:05:58.506Z,100527.38
2023-08-17T16:09:00.946Z,100545.72
2023-08-17T16:12:03.610Z,100525.91
2023-08-17T16:15:06.663Z,100550.88
2023-08-17T16:18:09.142Z,100553.84
2023-08-17T16:24:16.897Z,100550.81
2023-08-17T16:27:19.278Z,100539.22
2023-08-17T16:30:21.833Z,100549.22
2023-08-17T16:33:24.528Z,100552.97
2023-08-17T16:36:27.259Z,100553.28
2023-08-17T16:39:29.877Z,100563.47
2023-08-17T16:42:32.441Z,100567.63
2023-08-17T16:45:35.094Z,100551.19
2023-08-17T16:48:37.717Z,100562.03
2023-08-17T16:51:41.142Z,100574.19
2023-08-17T16:54:47.383Z,100575.03
2023-08-17T16:57:50.466Z,100568.19
2023-08-17T17:00:53.260Z,100576.03
2023-08-17T17:03:55.729Z,100562.25
2023-08-17T17:06:58.134Z,100571.38
2023-08-17T17:10:00.504Z,100559.84
2023-08-17T17:13:02.926Z,100550.56
2023-08-17T17:16:05.428Z,100570.00
2023-08-17T17:19:07.793Z,100561.78
2023-08-17T17:22:10.179Z,100557.72
2023-08-17T17:25:12.612Z,100566.00
2023-08-17T17:28:14.995Z,100565.72
2023-08-17T17:31:17.457Z,100561.56
2023-08-17T17:34:20.701Z,100567.16
2023-08-17T17:37:23.369Z,100532.22
2023-08-17T17:40:25.788Z,100538.31
2023-08-17T17:43:28.354Z,100553.03
2023-08-17T17:46:30.961Z,100540.47
2023-08-17T17:49:33.335Z,100552.47
2023-08-17T17:52:35.844Z,100525.59
2023-08-17T17:55:38.454Z,100537.88
2023-08-17T17:58:40.885Z,100554.22
2023-08-17T18:01:43.468Z,100553.72
2023-08-17T18:04:45.898Z,100534.22
2023-08-17T18:07:48.392Z,100547.47
2023-08-17T18:10:51.052Z,100529.94
2023-08-17T18:13:53.707Z,100534.00
2023-08-17T18:16:56.115Z,100527.59
2023-08-17T18:19:58.578Z,100539.06
2023-08-17T18:23:01.030Z,100525.66
2023-08-17T18:26:03.609Z,100550.19
2023-08-17T18:29:06.601Z,100522.88
2023-08-17T18:32:08.982Z,100546.28
2023-08-17T18:35:11.622Z,100543.78
2023-08-17T18:38:14.022Z,100538.09
2023-08-17T18:41:16.854Z,100524.44
2023-08-17T18:44:19.331Z,100531.25
2023-08-17T18:47:23.000Z,100533.06
2023-08-17T18:50:28.739Z,100536.28
2023-08-17T18:53:31.141Z,100541.84
2023-08-17T18:56:33.559Z,100542.16
2023-08-17T18:59:36.207Z,100569.59
2023-08-17T19:02:41.693Z,100565.66
2023-08-17T19:05:44.231Z,100573.63
2023-08-17T19:08:46.632Z,100574.06
2023-08-17T19:11:49.031Z,100569.16
2023-08-17T19:14:51.448Z,100552.16
2023-08-17T19:17:53.891Z,100554.81
2023-08-17T19:20:56.261Z,100559.13
2023-08-17T19:23:58.651Z,100554.94
2023-08-17T19:27:01.375Z,100558.72
2023-08-17T19:30:04.332Z,100547.16
2023-08-17T19:33:07.188Z,100555.91
2023-08-17T19:36:09.859Z,100557.72
2023-08-17T19:39:12.506Z,100535.16
2023-08-17T19:42:14.923Z,100552.31
2023-08-17T19:45:19.131Z,100555.22
2023-08-17T19:48:21.666Z,100556.34
2023-08-17T19:51:24.479Z,100545.59
2023-08-17T19:54:26.922Z,100547.84
2023-08-17T19:57:30.632Z,100565.69
2023-08-17T20:00:33.349Z,100563.81
2023-08-17T20:03:36.140Z,100546.50
2023-08-17T20:06:39.033Z,100549.44
2023-08-17T20:09:41.743Z,100555.28
2023-08-17T20:12:44.190Z,100565.03
2023-08-17T20:15:46.743Z,100568.78
2023-08-17T20:18:49.533Z,100550.19
2023-08-17T20:21:51.941Z,100557.66
2023-08-17T20:24:54.628Z,100567.78
2023-08-17T20:27:57.258Z,100537.50
2023-08-17T20:31:00.057Z,100547.00
2023-08-17T20:34:02.519Z,100548.22
2023-08-17T20:37:05.175Z,100531.66
2023-08-17T20:40:09.300Z,100543.56
2023-08-17T20:43:12.239Z,100545.19
2023-08-17T20:46:14.785Z,100546.69
2023-08-17T20:49:17.317Z,100544.59
2023-08-17T20:52:19.753Z,100555.88
2023-08-17T20:55:23.518Z,100536.53
2023-08-17T20:58:25.894Z,100559.00
2023-08-17T21:01:28.332Z,100553.97
2023-08-17T21:04:30.750Z,100558.03
2023-08-17T21:07:33.438Z,100560.28
2023-08-17T21:10:36.365Z,100563.31
2023-08-17T21:13:39.332Z,100560.28
2023-08-17T21:16:41.851Z,100550.25
2023-08-17T21:19:44.839Z,100571.09
2023-08-17T21:22:51.359Z,100560.59
2023-08-17T21:25:53.811Z,100542.34
2023-08-17T21:28:56.175Z,100549.56
2023-08-17T21:31:58.520Z,100546.50
2023-08-17T21:35:00.858Z,100570.00
2023-08-17T21:38:04.596Z,100574.38
2023-08-17T21:41:07.083Z,100571.25
2023-08-17T21:44:09.520Z,100557.84
2023-08-17T21:47:11.911Z,100551.41
2023-08-17T21:50:14.297Z,100577.22
2023-08-17T21:53:16.889Z,100540.47
2023-08-17T21:56:19.291Z,100565.13
2023-08-17T21:59:21.679Z,100580.31
2023-08-17T22:02:24.066Z,100562.59
2023-08-17T22:05:26.411Z,100577.66
2023-08-17T22:08:28.752Z,100580.72
2023-08-17T22:11:31.112Z,100581.69
2023-08-17T22:14:33.515Z,100572.38
2023-08-17T22:17:35.932Z,100585.72
2023-08-17T22:20:41.323Z,100579.09
2023-08-17T22:23:43.930Z,100590.28
2023-08-17T22:26:46.318Z,100597.69
2023-08-17T22:29:48.691Z,100606.41
2023-08-17T22:32:51.136Z,100579.50
2023-08-17T22:35:53.547Z,100595.81
2023-08-17T22:38:56.059Z,100574.84
2023-08-17T22:41:58.497Z,100570.97
2023-08-17T22:45:00.893Z,100595.59
2023-08-17T22:48:03.499Z,100603.31
2023-08-17T22:51:05.912Z,100598.09
2023-08-17T22:54:11.705Z,100594.56
2023-08-17T22:57:14.061Z,100578.78
2023-08-17T23:00:16.546Z,100573.16
2023-08-17T23:03:18.930Z,100567.03
2023-08-17T23:06:21.477Z,100563.69
2023-08-17T23:09:23.914Z,100580.34
2023-08-17T23:12:26.266Z,100580.59
2023-08-17T23:15:28.986Z,100576.16
2023-08-17T23:18:31.465Z,100557.06
2023-08-17T23:21:33.831Z,100567.16
2023-08-17T23:24:38.517Z,100576.88
2023-08-17T23:27:41.310Z,100567.81
2023-08-17T23:30:43.768Z,100568.31
2023-08-17T23:33:46.152Z,100551.78
2023-08-17T23:36:48.569Z,100567.47
2023-08-17T23:39:51.022Z,100543.84
2023-08-17T23:42:53.534Z,100559.25
2023-08-17T23:45:55.967Z,100532.94
2023-08-17T23:48:58.445Z,100533.53
2023-08-17T23:52:00.885Z,100555.19
2023-08-17T23:55:04.450Z,100552.91
2023-08-17T23:58:06.864Z,100550.50
